Time;durP1;ratioP1;P1;durP2;ratioP2;P2;SDS_P1;SDS_P2;PMS_P1;PMS_P2;Temp;Humidity;BMP_temperature;BMP_pressure;BME280_temperature;BME280_humidity;BME280_pressure;Samples;Min_cycle;Max_cycle;Signal;HPM_P1;HPM_P2
2022/03/06 00:01:21;;;;;;;11.53;7.07;;;0.90;99.90;;;;;;4985649;28;20182;-75
2022/03/06 00:03:50;;;;;;;9.93;6.80;;;0.80;99.90;;;;;;5001772;28;20217;-75
2022/03/06 00:06:16;;;;;;;10.10;6.80;;;0.80;99.90;;;;;;5002320;28;20182;-75
2022/03/06 00:08:42;;;;;;;11.00;7.50;;;0.80;99.90;;;;;;5001836;28;20589;-75
2022/03/06 00:11:08;;;;;;;10.30;6.80;;;0.70;99.90;;;;;;5001549;28;20192;-75
2022/03/06 00:13:35;;;;;;;8.77;6.13;;;0.70;99.90;;;;;;5017867;28;20174;-75
2022/03/06 00:16:01;;;;;;;10.27;6.33;;;0.80;99.90;;;;;;5018011;28;20231;-75
2022/03/06 00:18:26;;;;;;;10.33;7.00;;;0.80;99.90;;;;;;4985487;28;20301;-75
2022/03/06 00:20:53;;;;;;;9.80;6.23;;;0.70;99.90;;;;;;5001823;28;20182;-75
2022/03/06 00:23:19;;;;;;;9.73;6.30;;;0.50;99.90;;;;;;5017814;28;20186;-75
2022/03/06 00:25:45;;;;;;;9.87;6.30;;;0.50;99.90;;;;;;5001605;28;20179;-76
2022/03/06 00:28:11;;;;;;;10.47;6.60;;;0.60;99.90;;;;;;4985234;28;20194;-75
2022/03/06 00:30:37;;;;;;;10.73;6.43;;;0.60;99.90;;;;;;5001157;28;20218;-75
2022/03/06 00:33:05;;;;;;;10.27;6.80;;;0.50;99.90;;;;;;5001172;28;20247;-75
2022/03/06 00:35:31;;;;;;;10.53;6.63;;;0.50;99.90;;;;;;5001582;28;20273;-75
2022/03/06 00:37:58;;;;;;;11.80;7.40;;;0.40;99.90;;;;;;4985361;28;20198;-75
2022/03/06 00:40:24;;;;;;;13.17;7.20;;;0.40;99.90;;;;;;5017615;28;20182;-76
2022/03/06 00:42:50;;;;;;;11.07;6.67;;;0.60;99.90;;;;;;5016945;28;20174;-75
2022/03/06 00:45:16;;;;;;;9.07;6.13;;;0.50;99.90;;;;;;5001020;28;20289;-75
2022/03/06 00:47:42;;;;;;;10.53;6.83;;;0.50;99.90;;;;;;5001339;28;20206;-75
2022/03/06 00:50:08;;;;;;;11.83;7.10;;;0.50;99.90;;;;;;4984868;28;20264;-76
2022/03/06 00:52:34;;;;;;;8.97;6.60;;;0.40;99.90;;;;;;5017032;28;20174;-75
2022/03/06 00:54:59;;;;;;;10.73;7.00;;;0.40;99.90;;;;;;4984642;28;20222;-75
2022/03/06 00:57:25;;;;;;;10.50;6.70;;;0.50;99.90;;;;;;5038350;23;20220;-76
2022/03/06 00:59:50;;;;;;;10.70;6.47;;;0.60;99.90;;;;;;5013787;28;20186;-76
2022/03/06 01:02:16;;;;;;;8.73;6.30;;;0.60;99.90;;;;;;4997525;28;20266;-76
2022/03/06 01:04:42;;;;;;;8.83;5.60;;;0.70;99.90;;;;;;5013886;28;20167;-75
2022/03/06 01:07:07;;;;;;;10.13;7.10;;;0.60;99.90;;;;;;4997562;28;20175;-76
2022/03/06 01:09:33;;;;;;;10.97;7.57;;;0.60;99.90;;;;;;4996647;28;20297;-76
2022/03/06 01:11:59;;;;;;;8.40;6.10;;;0.60;99.90;;;;;;5013491;28;20653;-76
2022/03/06 01:14:25;;;;;;;9.60;6.30;;;0.60;99.90;;;;;;5013496;28;20182;-76
2022/03/06 01:16:50;;;;;;;12.50;6.90;;;0.50;99.90;;;;;;4981357;28;20175;-77
2022/03/06 01:19:16;;;;;;;11.90;7.40;;;0.40;99.90;;;;;;4997217;28;20583;-76
2022/03/06 01:21:42;;;;;;;10.30;7.10;;;0.40;99.90;;;;;;5014518;28;20171;-76
2022/03/06 01:24:08;;;;;;;8.60;6.37;;;0.50;99.90;;;;;;4997289;28;20178;-77
2022/03/06 01:26:33;;;;;;;10.03;6.90;;;0.40;99.90;;;;;;5013437;28;20214;-75
2022/03/06 01:28:59;;;;;;;10.30;6.93;;;0.50;99.90;;;;;;5013215;28;20293;-76
2022/03/06 01:31:25;;;;;;;9.10;6.17;;;0.60;99.90;;;;;;4980952;28;20183;-76
2022/03/06 01:33:50;;;;;;;8.97;5.70;;;0.50;99.90;;;;;;4980945;28;20182;-76
2022/03/06 01:36:16;;;;;;;10.27;6.67;;;0.50;99.90;;;;;;4981140;28;20199;-76
2022/03/06 01:38:41;;;;;;;8.80;5.77;;;0.40;99.90;;;;;;4996978;28;20195;-76
2022/03/06 01:41:07;;;;;;;9.43;6.80;;;0.40;99.90;;;;;;4980549;28;20197;-75
2022/03/06 01:43:33;;;;;;;9.43;6.93;;;0.30;99.90;;;;;;4996574;28;20179;-77
2022/03/06 01:45:58;;;;;;;9.47;6.53;;;0.30;99.90;;;;;;4996803;28;20691;-76
2022/03/06 01:48:24;;;;;;;11.30;7.10;;;0.30;99.90;;;;;;4980504;28;20209;-76
2022/03/06 01:50:50;;;;;;;10.83;7.20;;;0.30;99.90;;;;;;5013091;28;20234;-76
2022/03/06 01:53:16;;;;;;;8.60;6.33;;;0.40;99.90;;;;;;4996463;28;20183;-76
2022/03/06 01:55:43;;;;;;;9.77;6.27;;;0.50;99.90;;;;;;4980332;28;20190;-77
2022/03/06 01:58:10;;;;;;;10.90;6.60;;;0.50;99.90;;;;;;4996502;28;20246;-76
2022/03/06 02:00:40;;;;;;;8.97;6.60;;;0.50;99.90;;;;;;4996651;28;20216;-76
2022/03/06 02:03:06;;;;;;;10.43;6.80;;;0.50;99.90;;;;;;5012729;28;20269;-76
2022/03/06 02:05:32;;;;;;;10.33;6.73;;;0.50;99.90;;;;;;5012647;28;20261;-76
2022/03/06 02:07:58;;;;;;;10.07;6.73;;;0.50;99.90;;;;;;4996232;28;20210;-76
2022/03/06 02:10:24;;;;;;;11.33;7.20;;;0.50;99.90;;;;;;5012465;28;20215;-76
2022/03/06 02:12:50;;;;;;;10.67;7.17;;;0.40;99.90;;;;;;4996123;28;20183;-76
2022/03/06 02:15:17;;;;;;;9.17;6.30;;;0.50;99.90;;;;;;4996195;28;20179;-76
2022/03/06 02:17:43;;;;;;;9.83;6.33;;;0.50;99.90;;;;;;4996439;28;20204;-76
2022/03/06 02:20:18;;;;;;;9.77;6.37;;;0.50;99.90;;;;;;4996197;28;20225;-76
2022/03/06 02:22:50;;;;;;;9.10;6.33;;;0.40;99.90;;;;;;4996047;28;20183;-76
2022/03/06 02:25:22;;;;;;;10.63;6.50;;;0.40;99.90;;;;;;5012280;28;20175;-75
2022/03/06 02:27:49;;;;;;;8.60;6.23;;;0.30;99.90;;;;;;5012395;28;20203;-76
2022/03/06 02:30:33;;;;;;;9.80;6.23;;;0.30;99.90;;;;;;5012057;28;20221;-75
2022/03/06 02:33:02;;;;;;;9.80;6.50;;;0.30;99.90;;;;;;4995561;28;20215;-76
2022/03/06 02:35:28;;;;;;;10.77;6.83;;;0.40;99.90;;;;;;5012201;28;20276;-75
2022/03/06 02:37:54;;;;;;;11.70;7.07;;;0.40;99.90;;;;;;5013149;28;20199;-76
2022/03/06 02:40:21;;;;;;;11.73;6.70;;;0.40;99.90;;;;;;5012044;28;20213;-76
2022/03/06 02:42:49;;;;;;;11.07;6.53;;;0.40;99.90;;;;;;5011918;28;20211;-76
2022/03/06 02:45:26;;;;;;;11.47;6.97;;;0.40;99.90;;;;;;5013153;28;20175;-76
2022/03/06 02:47:54;;;;;;;12.07;7.67;;;0.40;99.90;;;;;;4995407;28;20583;-76
2022/03/06 02:50:22;;;;;;;9.57;6.60;;;0.30;99.90;;;;;;4995325;28;20277;-76
2022/03/06 02:52:48;;;;;;;10.40;7.10;;;0.20;99.90;;;;;;5011853;28;20171;-76
2022/03/06 02:55:15;;;;;;;10.27;7.50;;;0.30;99.90;;;;;;5011909;28;20174;-76
2022/03/06 02:57:40;;;;;;;11.37;7.57;;;0.40;99.90;;;;;;4995500;28;20312;-76
2022/03/06 03:00:10;;;;;;;9.93;7.23;;;0.40;99.90;;;;;;5012927;28;20258;-76
2022/03/06 03:02:37;;;;;;;11.70;7.47;;;0.30;99.90;;;;;;5011406;28;20211;-76
2022/03/06 03:05:05;;;;;;;11.50;6.97;;;0.30;99.90;;;;;;5011588;28;20187;-76
2022/03/06 03:07:30;;;;;;;11.07;7.50;;;0.20;99.90;;;;;;4995210;28;20241;-76
2022/03/06 03:09:56;;;;;;;11.80;7.73;;;0.10;99.90;;;;;;5012715;28;20238;-76
2022/03/06 03:12:22;;;;;;;11.10;7.10;;;0.20;99.90;;;;;;4995010;28;20182;-76
2022/03/06 03:14:47;;;;;;;11.67;7.67;;;0.10;99.90;;;;;;5011470;28;20237;-76
2022/03/06 03:17:13;;;;;;;11.40;7.30;;;0.20;99.90;;;;;;5011342;28;20234;-76
2022/03/06 03:19:39;;;;;;;10.60;7.47;;;0.20;99.90;;;;;;4978871;28;20278;-76
2022/03/06 03:22:04;;;;;;;11.47;7.60;;;0.20;99.90;;;;;;5011307;28;20185;-76
2022/03/06 03:24:30;;;;;;;10.33;7.47;;;0.20;99.90;;;;;;4978896;28;20186;-77
2022/03/06 03:26:56;;;;;;;12.27;7.90;;;0.20;99.90;;;;;;4994968;28;20190;-76
2022/03/06 03:29:21;;;;;;;11.23;7.30;;;0.30;99.90;;;;;;5011105;28;20250;-76
2022/03/06 03:31:47;;;;;;;13.10;8.07;;;0.30;99.90;;;;;;4994841;28;20179;-75
2022/03/06 03:34:13;;;;;;;12.43;7.93;;;0.20;99.90;;;;;;4994586;28;20186;-75
2022/03/06 03:36:40;;;;;;;11.70;7.50;;;0.10;99.90;;;;;;5011366;28;20682;-76
2022/03/06 03:39:06;;;;;;;11.40;7.63;;;0.10;99.90;;;;;;5011124;28;20199;-76
2022/03/06 03:41:32;;;;;;;12.23;7.57;;;0.10;99.90;;;;;;5010828;28;20174;-76
2022/03/06 03:43:58;;;;;;;9.70;6.93;;;0.10;99.90;;;;;;4994817;28;20186;-76
2022/03/06 03:46:23;;;;;;;11.13;7.07;;;0.00;99.90;;;;;;4994658;28;20194;-76
2022/03/06 03:48:49;;;;;;;10.73;6.63;;;-0.10;99.90;;;;;;5010791;28;20202;-76
2022/03/06 03:51:15;;;;;;;10.07;6.73;;;0.00;99.90;;;;;;4994816;28;20190;-76
2022/03/06 03:53:41;;;;;;;11.00;7.00;;;0.00;99.90;;;;;;4994747;28;20181;-76
2022/03/06 03:56:07;;;;;;;10.77;7.00;;;0.00;99.90;;;;;;4994616;28;20665;-76
2022/03/06 03:58:34;;;;;;;9.93;6.87;;;0.10;99.90;;;;;;5010885;28;20214;-76
2022/03/06 04:01:00;;;;;;;10.40;6.63;;;0.00;99.90;;;;;;5010722;28;20672;-75
2022/03/06 04:03:26;;;;;;;8.93;7.00;;;0.20;99.90;;;;;;5010633;28;20269;-76
2022/03/06 04:05:51;;;;;;;9.20;6.40;;;0.20;99.90;;;;;;5010965;28;20273;-76
2022/03/06 04:08:18;;;;;;;8.67;6.00;;;0.10;99.90;;;;;;5011904;28;20210;-76
2022/03/06 04:10:43;;;;;;;8.47;5.90;;;0.10;99.90;;;;;;4994616;28;20220;-75
2022/03/06 04:13:09;;;;;;;9.70;6.20;;;0.00;99.90;;;;;;4994364;28;20213;-75
2022/03/06 04:15:35;;;;;;;10.33;6.97;;;0.00;99.90;;;;;;5010701;28;20182;-76
2022/03/06 04:18:00;;;;;;;9.80;6.50;;;0.00;99.90;;;;;;4994521;28;20209;-76
2022/03/06 04:20:26;;;;;;;9.47;6.43;;;0.00;99.90;;;;;;4978440;28;20187;-76
2022/03/06 04:22:52;;;;;;;8.90;6.20;;;0.00;99.90;;;;;;4994167;28;20205;-76
2022/03/06 04:25:17;;;;;;;9.07;6.57;;;-0.10;99.90;;;;;;4978286;28;20191;-76
2022/03/06 04:27:43;;;;;;;9.63;6.40;;;-0.20;99.90;;;;;;4994187;28;20302;-76
2022/03/06 04:30:09;;;;;;;10.30;6.47;;;-0.20;99.90;;;;;;5010538;28;20236;-77
2022/03/06 04:32:35;;;;;;;8.37;6.10;;;-0.20;99.90;;;;;;5010332;28;20737;-76
2022/03/06 04:35:01;;;;;;;8.47;5.80;;;-0.20;99.90;;;;;;4994711;28;20262;-76
2022/03/06 04:37:26;;;;;;;7.90;5.67;;;-0.10;99.90;;;;;;5010557;28;20199;-75
2022/03/06 04:39:52;;;;;;;9.47;5.63;;;-0.20;99.90;;;;;;4978067;28;20183;-76
2022/03/06 04:42:18;;;;;;;8.57;5.40;;;-0.10;99.90;;;;;;4977851;28;20186;-76
2022/03/06 04:44:44;;;;;;;6.97;5.20;;;-0.10;99.90;;;;;;5011246;28;20194;-76
2022/03/06 04:47:09;;;;;;;7.53;5.70;;;0.00;99.90;;;;;;4997842;28;20194;-75
2022/03/06 04:49:36;;;;;;;7.80;5.67;;;-0.10;99.90;;;;;;4997936;28;20214;-76
2022/03/06 04:52:02;;;;;;;8.27;5.40;;;-0.10;99.90;;;;;;5014084;28;20224;-76
2022/03/06 04:54:28;;;;;;;7.57;5.20;;;-0.10;99.90;;;;;;5013890;28;20179;-76
2022/03/06 04:56:53;;;;;;;6.73;4.97;;;-0.10;99.90;;;;;;5013987;28;20304;-76
2022/03/06 04:59:19;;;;;;;8.77;5.60;;;-0.10;99.90;;;;;;4997476;28;20308;-75
2022/03/06 05:01:45;;;;;;;8.37;5.63;;;-0.10;99.90;;;;;;5013652;28;20233;-76
2022/03/06 05:04:10;;;;;;;6.87;5.30;;;0.00;99.90;;;;;;5013839;28;20193;-76
2022/03/06 05:06:36;;;;;;;8.90;5.70;;;-0.10;99.90;;;;;;5013926;28;20180;-76
2022/03/06 05:09:02;;;;;;;7.60;5.60;;;-0.10;99.90;;;;;;4997275;28;20203;-76
2022/03/06 05:11:28;;;;;;;7.70;5.60;;;0.00;99.90;;;;;;4997268;28;20269;-76
2022/03/06 05:13:54;;;;;;;7.80;5.60;;;0.00;99.90;;;;;;4997407;28;20316;-76
2022/03/06 05:16:20;;;;;;;8.10;5.53;;;-0.10;99.90;;;;;;5013536;28;20189;-76
2022/03/06 05:18:45;;;;;;;7.43;5.30;;;0.00;99.90;;;;;;4997276;28;20202;-76
2022/03/06 05:21:11;;;;;;;8.57;5.80;;;0.00;99.90;;;;;;5013610;28;20182;-76
2022/03/06 05:23:37;;;;;;;6.67;4.93;;;-0.20;99.90;;;;;;4981087;28;20185;-76
2022/03/06 05:26:03;;;;;;;9.83;5.70;;;-0.20;99.90;;;;;;5013333;28;20175;-77
2022/03/06 05:28:28;;;;;;;9.03;6.00;;;-0.10;99.90;;;;;;5013330;28;20199;-76
2022/03/06 05:30:54;;;;;;;8.57;5.70;;;-0.10;99.90;;;;;;4996906;28;20220;-76
2022/03/06 05:33:20;;;;;;;9.70;6.10;;;-0.10;99.90;;;;;;4996716;28;20225;-76
2022/03/06 05:35:46;;;;;;;9.57;6.20;;;-0.20;99.90;;;;;;5013220;28;20210;-76
2022/03/06 05:38:12;;;;;;;8.63;6.67;;;-0.20;99.90;;;;;;5014317;28;20198;-76
2022/03/06 05:40:38;;;;;;;10.30;6.60;;;-0.30;99.90;;;;;;5013113;28;20185;-76
2022/03/06 05:43:04;;;;;;;10.60;6.97;;;-0.30;99.90;;;;;;5012810;28;20273;-76
2022/03/06 05:45:29;;;;;;;9.33;6.87;;;-0.40;99.90;;;;;;5013015;28;20190;-75
2022/03/06 05:47:55;;;;;;;8.10;6.00;;;-0.30;99.90;;;;;;5013077;28;20549;-76
2022/03/06 05:50:21;;;;;;;9.47;6.20;;;-0.30;99.90;;;;;;4996513;28;20205;-76
2022/03/06 05:52:48;;;;;;;8.23;5.83;;;-0.30;99.90;;;;;;5012751;28;20210;-76
2022/03/06 05:55:14;;;;;;;9.50;6.53;;;-0.20;99.90;;;;;;4996641;28;20267;-76
2022/03/06 05:57:40;;;;;;;10.40;6.07;;;-0.20;99.90;;;;;;4996426;28;20217;-76
2022/03/06 06:00:08;;;;;;;8.70;5.90;;;-0.20;99.90;;;;;;5012736;28;20193;-77
2022/03/06 06:02:35;;;;;;;10.20;5.70;;;-0.20;99.90;;;;;;4996598;28;20192;-76
2022/03/06 06:05:05;;;;;;;10.43;7.10;;;-0.10;99.90;;;;;;4980724;28;20186;-77
2022/03/06 06:07:31;;;;;;;10.93;7.40;;;0.00;99.90;;;;;;5012644;28;20213;-76
2022/03/06 06:09:56;;;;;;;10.93;7.60;;;0.00;99.90;;;;;;5012617;28;20203;-77
2022/03/06 06:12:22;;;;;;;10.03;7.67;;;0.00;99.90;;;;;;4979627;28;20216;-77
2022/03/06 06:14:47;;;;;;;12.00;8.00;;;0.00;99.90;;;;;;4980123;28;20179;-77
2022/03/06 06:17:13;;;;;;;10.17;7.40;;;0.00;99.90;;;;;;4979803;28;20205;-77
2022/03/06 06:19:39;;;;;;;11.00;7.43;;;-0.10;99.90;;;;;;4980085;28;20186;-76
2022/03/06 06:22:04;;;;;;;12.53;7.83;;;0.00;99.90;;;;;;4979750;28;20207;-76
2022/03/06 06:24:30;;;;;;;11.97;7.97;;;0.10;99.90;;;;;;4996145;28;20725;-77
2022/03/06 06:26:55;;;;;;;11.33;8.43;;;0.10;99.90;;;;;;5012069;28;20186;-77
2022/03/06 06:29:23;;;;;;;12.53;8.33;;;0.20;99.90;;;;;;5012153;28;20214;-77
2022/03/06 06:31:49;;;;;;;12.00;8.50;;;0.30;99.90;;;;;;5012258;28;20221;-77
2022/03/06 06:34:15;;;;;;;12.43;8.63;;;0.30;99.90;;;;;;4996042;28;20174;-77
2022/03/06 06:36:41;;;;;;;13.00;8.03;;;0.30;99.90;;;;;;4995802;28;20233;-76
2022/03/06 06:39:09;;;;;;;13.23;8.70;;;0.30;99.90;;;;;;4979682;28;20296;-76
2022/03/06 06:41:37;;;;;;;12.00;8.23;;;0.30;99.90;;;;;;5011878;28;20244;-76
2022/03/06 06:44:03;;;;;;;11.53;8.03;;;0.40;99.90;;;;;;5011560;28;20209;-76
2022/03/06 06:46:28;;;;;;;11.73;7.87;;;0.50;99.90;;;;;;4995733;28;20230;-77
2022/03/06 06:48:54;;;;;;;10.27;7.57;;;0.50;99.90;;;;;;4995375;28;20686;-76
2022/03/06 06:51:19;;;;;;;11.30;7.67;;;0.60;99.90;;;;;;4979184;28;20198;-77
2022/03/06 06:53:45;;;;;;;10.73;7.73;;;0.60;99.90;;;;;;4979273;28;20183;-77
2022/03/06 06:56:10;;;;;;;12.73;7.97;;;0.70;99.90;;;;;;4995298;28;20179;-77
2022/03/06 06:58:36;;;;;;;12.60;8.03;;;0.70;99.90;;;;;;5033204;22;20265;-78
2022/03/06 07:01:02;;;;;;;14.23;9.17;;;0.70;99.90;;;;;;4985314;28;20177;-78
2022/03/06 07:03:27;;;;;;;13.33;9.40;;;0.70;99.90;;;;;;5000771;28;20182;-79
2022/03/06 07:05:55;;;;;;;11.00;7.93;;;0.60;99.90;;;;;;4983858;28;20606;-82
2022/03/06 07:08:21;;;;;;;12.73;7.90;;;0.70;99.90;;;;;;4996609;28;20290;-79
2022/03/06 07:10:47;;;;;;;11.87;7.80;;;0.80;99.90;;;;;;5012676;28;20293;-80
2022/03/06 07:13:12;;;;;;;11.37;7.40;;;1.60;99.90;;;;;;5013271;28;20182;-79
2022/03/06 07:15:38;;;;;;;10.13;7.67;;;2.40;99.90;;;;;;4997038;28;20187;-79
2022/03/06 07:18:04;;;;;;;12.80;8.03;;;2.90;99.90;;;;;;4996364;28;20195;-80
2022/03/06 07:20:30;;;;;;;11.80;8.40;;;3.00;99.90;;;;;;5012805;28;20635;-80
2022/03/06 07:22:55;;;;;;;11.23;8.07;;;2.70;99.90;;;;;;4996422;28;20176;-80
2022/03/06 07:25:22;;;;;;;10.63;7.70;;;2.20;99.90;;;;;;5012442;28;20167;-80
2022/03/06 07:27:48;;;;;;;12.63;8.53;;;1.80;99.90;;;;;;5012858;28;20695;-80
2022/03/06 07:30:14;;;;;;;13.43;8.30;;;1.60;99.90;;;;;;4996363;28;20222;-80
2022/03/06 07:32:48;;;;;;;10.50;7.97;;;1.40;99.90;;;;;;5012584;28;20171;-80
2022/03/06 07:35:15;;;;;;;11.70;7.43;;;1.40;99.90;;;;;;5012340;28;20177;-80
2022/03/06 07:37:41;;;;;;;11.10;7.63;;;1.40;99.90;;;;;;5012486;28;20191;-80
2022/03/06 07:40:08;;;;;;;11.93;8.33;;;1.50;99.90;;;;;;4995739;28;20548;-80
2022/03/06 07:42:34;;;;;;;12.70;8.80;;;1.50;99.90;;;;;;5012365;28;20181;-80
2022/03/06 07:45:00;;;;;;;9.90;7.47;;;1.50;99.90;;;;;;5012571;28;20265;-79
2022/03/06 07:47:25;;;;;;;11.10;7.37;;;1.60;99.90;;;;;;5012312;28;20175;-79
2022/03/06 07:49:51;;;;;;;11.17;7.27;;;1.70;99.90;;;;;;5012596;28;20199;-79
2022/03/06 07:52:16;;;;;;;9.87;6.73;;;1.80;99.90;;;;;;4995890;28;20186;-79
2022/03/06 07:54:42;;;;;;;9.80;7.00;;;1.90;99.90;;;;;;5012476;28;20532;-77
2022/03/06 07:57:08;;;;;;;12.97;8.23;;;2.00;99.90;;;;;;5011474;28;20229;-77
2022/03/06 07:59:35;;;;;;;48.40;24.53;;;2.00;99.90;;;;;;4991625;28;20300;-80
2022/03/06 08:02:00;;;;;;;11.03;7.90;;;2.10;99.90;;;;;;5006863;28;20187;-80
2022/03/06 08:04:26;;;;;;;11.27;7.30;;;2.20;99.90;;;;;;5012552;28;20179;-80
2022/03/06 08:06:52;;;;;;;10.23;6.53;;;2.30;99.90;;;;;;4996095;28;20334;-80
2022/03/06 08:09:19;;;;;;;9.47;7.13;;;2.30;99.90;;;;;;4995467;28;20301;-80
2022/03/06 08:11:44;;;;;;;10.23;7.07;;;2.30;99.90;;;;;;4996045;28;20586;-80
2022/03/06 08:14:10;;;;;;;11.30;8.00;;;2.30;99.90;;;;;;4996723;28;20175;-80
2022/03/06 08:16:37;;;;;;;14.70;10.23;;;2.20;99.90;;;;;;4996297;28;20179;-80
2022/03/06 08:19:03;;;;;;;17.17;10.50;;;2.20;99.90;;;;;;4995384;28;20191;-81
2022/03/06 08:21:29;;;;;;;12.40;9.33;;;2.40;99.90;;;;;;4999861;28;20670;-80
2022/03/06 08:23:54;;;;;;;14.97;10.20;;;2.40;99.90;;;;;;5016124;28;20262;-81
2022/03/06 08:26:20;;;;;;;10.17;6.80;;;2.50;99.90;;;;;;5000072;28;20171;-80
2022/03/06 08:28:46;;;;;;;8.80;6.17;;;2.70;99.90;;;;;;5013089;28;20230;-80
2022/03/06 08:31:11;;;;;;;9.80;6.73;;;2.90;99.90;;;;;;4994748;28;20234;-80
2022/03/06 08:33:37;;;;;;;9.77;6.50;;;3.00;99.90;;;;;;4995472;28;20181;-80
2022/03/06 08:36:03;;;;;;;8.77;6.57;;;3.10;99.90;;;;;;4964154;28;20196;-80
2022/03/06 08:38:29;;;;;;;11.43;7.30;;;3.20;99.90;;;;;;4996049;28;20205;-80
2022/03/06 08:40:55;;;;;;;9.10;7.10;;;3.40;99.90;;;;;;4964048;28;20230;-80
2022/03/06 08:43:20;;;;;;;11.53;9.20;;;3.60;99.90;;;;;;4979866;28;20189;-80
2022/03/06 08:45:46;;;;;;;8.30;6.33;;;3.70;99.90;;;;;;4966500;28;20176;-80
2022/03/06 08:48:12;;;;;;;10.83;6.80;;;3.60;99.90;;;;;;4999502;28;20205;-80
2022/03/06 08:50:37;;;;;;;9.50;6.40;;;3.60;99.90;;;;;;4982770;28;20208;-80
2022/03/06 08:53:03;;;;;;;9.77;6.60;;;3.70;99.90;;;;;;4982872;28;20182;-80
2022/03/06 08:55:29;;;;;;;8.63;7.03;;;3.60;99.90;;;;;;4999226;28;20280;-80
2022/03/06 08:57:54;;;;;;;7.13;5.77;;;3.60;99.90;;;;;;4999122;28;20695;-80
2022/03/06 09:00:20;;;;;;;6.77;5.60;;;3.70;99.90;;;;;;5015589;28;20184;-80
2022/03/06 09:02:46;;;;;;;6.67;5.33;;;3.70;99.90;;;;;;5015230;28;20216;-80
2022/03/06 09:05:12;;;;;;;8.53;6.20;;;3.70;99.90;;;;;;5014499;28;20181;-80
2022/03/06 09:07:37;;;;;;;7.67;6.17;;;3.60;99.90;;;;;;4998896;28;20209;-80
2022/03/06 09:10:04;;;;;;;8.47;5.87;;;3.50;99.90;;;;;;4998780;28;20628;-80
2022/03/06 09:12:30;;;;;;;8.20;6.17;;;3.50;99.90;;;;;;4998714;28;20217;-80
2022/03/06 09:14:56;;;;;;;9.00;6.10;;;3.50;99.90;;;;;;5015357;28;20181;-80
2022/03/06 09:17:21;;;;;;;6.27;5.17;;;3.50;99.90;;;;;;5014864;28;20175;-79
2022/03/06 09:19:47;;;;;;;6.73;5.10;;;3.60;99.90;;;;;;5015674;28;20185;-79
2022/03/06 09:22:13;;;;;;;6.43;5.60;;;3.60;99.90;;;;;;5015515;28;20189;-79
2022/03/06 09:24:39;;;;;;;7.20;5.40;;;3.60;99.90;;;;;;5015077;28;20667;-79
2022/03/06 09:27:04;;;;;;;6.10;4.83;;;3.60;99.90;;;;;;4982985;28;20245;-80
2022/03/06 09:29:30;;;;;;;6.33;4.93;;;3.60;99.90;;;;;;4982393;28;20232;-80
2022/03/06 09:31:56;;;;;;;8.87;6.50;;;3.60;99.90;;;;;;4982070;28;20204;-79
2022/03/06 09:34:22;;;;;;;6.27;5.20;;;3.60;99.90;;;;;;5014995;28;20697;-80
2022/03/06 09:36:47;;;;;;;8.43;5.60;;;3.50;99.90;;;;;;5014717;28;20208;-82
2022/03/06 09:39:14;;;;;;;7.50;5.77;;;3.50;99.90;;;;;;5014797;28;20277;-80
2022/03/06 09:41:40;;;;;;;7.63;5.97;;;3.50;99.90;;;;;;4998448;28;20711;-80
2022/03/06 09:44:11;;;;;;;7.47;5.73;;;3.50;99.90;;;;;;5014828;28;20189;-81
2022/03/06 09:46:38;;;;;;;7.93;5.90;;;3.60;99.90;;;;;;4981689;28;20223;-80
2022/03/06 09:49:05;;;;;;;8.00;5.97;;;3.40;99.90;;;;;;4981576;28;20204;-80
2022/03/06 09:51:38;;;;;;;9.70;8.50;;;3.50;99.90;;;;;;5014330;28;20770;-80
2022/03/06 09:54:04;;;;;;;7.90;6.30;;;3.50;99.90;;;;;;5014536;28;20207;-80
2022/03/06 09:56:30;;;;;;;7.90;6.77;;;3.60;99.90;;;;;;5014212;28;20648;-80
2022/03/06 09:58:56;;;;;;;8.53;6.90;;;3.70;99.90;;;;;;4998219;28;20225;-81
2022/03/06 10:01:21;;;;;;;7.77;5.93;;;3.60;99.90;;;;;;4981435;28;20208;-79
2022/03/06 10:03:47;;;;;;;10.57;7.07;;;3.70;99.90;;;;;;4981325;28;20625;-80
2022/03/06 10:06:13;;;;;;;6.93;5.37;;;3.70;99.90;;;;;;4981931;28;20191;-79
2022/03/06 10:08:38;;;;;;;7.70;6.60;;;3.60;99.90;;;;;;4981290;28;20203;-80
2022/03/06 10:11:08;;;;;;;13.23;11.03;;;3.50;99.90;;;;;;5013745;28;20219;-81
2022/03/06 10:13:37;;;;;;;8.67;6.90;;;3.70;99.90;;;;;;4997619;28;20215;-81
2022/03/06 10:16:15;;;;;;;8.13;6.37;;;3.80;99.90;;;;;;4997261;28;20648;-81
2022/03/06 10:18:42;;;;;;;11.20;8.27;;;3.90;99.90;;;;;;4997938;28;20276;-80
2022/03/06 10:21:13;;;;;;;9.70;7.77;;;4.00;99.90;;;;;;5013935;28;20207;-80
2022/03/06 10:23:40;;;;;;;8.63;7.07;;;4.00;99.90;;;;;;5013628;28;20224;-80
2022/03/06 10:26:16;;;;;;;9.93;7.17;;;4.10;99.90;;;;;;5013553;28;20185;-80
2022/03/06 10:28:50;;;;;;;9.93;6.83;;;4.00;99.90;;;;;;5013812;28;20204;-80
2022/03/06 10:31:17;;;;;;;9.50;7.27;;;4.10;99.90;;;;;;4997628;28;20239;-80
2022/03/06 10:34:04;;;;;;;9.50;6.90;;;4.20;99.90;;;;;;4997043;28;20547;-80
2022/03/06 10:36:36;;;;;;;11.70;9.73;;;4.20;99.90;;;;;;4997015;28;20182;-80
2022/03/06 10:39:13;;;;;;;8.37;6.77;;;4.10;99.90;;;;;;4997143;28;20296;-80
2022/03/06 10:41:42;;;;;;;7.80;6.50;;;4.10;99.90;;;;;;4996990;28;20223;-79
2022/03/06 10:44:10;;;;;;;24.70;17.63;;;4.10;99.90;;;;;;5012894;28;20190;-80
2022/03/06 10:46:37;;;;;;;26.47;18.03;;;4.20;99.90;;;;;;4996995;28;20189;-81
2022/03/06 10:49:15;;;;;;;12.07;8.73;;;4.30;99.90;;;;;;4997394;28;20206;-80
2022/03/06 10:51:46;;;;;;;132.77;75.57;;;4.50;99.90;;;;;;4998532;28;20182;-81
2022/03/06 10:54:14;;;;;;;72.13;40.13;;;5.90;99.90;;;;;;4982617;28;20263;-79
2022/03/06 10:56:43;;;;;;;25.00;17.80;;;6.90;99.90;;;;;;4998425;28;20613;-79
2022/03/06 10:59:09;;;;;;;11.73;8.90;;;7.70;99.90;;;;;;4997794;28;20309;-79
2022/03/06 11:01:37;;;;;;;26.67;15.13;;;7.90;99.90;;;;;;5014103;28;20179;-79
2022/03/06 11:04:06;;;;;;;15.67;11.47;;;6.90;99.90;;;;;;4997608;28;20238;-79
2022/03/06 11:06:42;;;;;;;45.20;22.30;;;6.30;99.90;;;;;;4997683;28;20179;-79
2022/03/06 11:09:16;;;;;;;19.30;11.50;;;7.90;99.90;;;;;;4996054;28;20198;-82
2022/03/06 11:11:44;;;;;;;24.27;13.83;;;8.30;99.90;;;;;;4995226;28;20180;-81
2022/03/06 11:14:11;;;;;;;79.47;37.03;;;7.20;99.90;;;;;;4995581;28;20184;-81
2022/03/06 11:16:38;;;;;;;10.37;9.13;;;7.00;99.90;;;;;;4995674;28;20181;-81
2022/03/06 11:19:05;;;;;;;11.87;9.30;;;7.10;99.90;;;;;;4985098;28;20227;-81
2022/03/06 11:21:35;;;;;;;9.47;8.47;;;6.60;99.90;;;;;;5004276;28;20176;-81
2022/03/06 11:24:09;;;;;;;8.83;7.87;;;6.10;99.90;;;;;;4984212;28;20194;-80
2022/03/06 11:26:35;;;;;;;11.97;8.73;;;6.00;99.90;;;;;;5016882;28;20412;-81
2022/03/06 11:29:31;;;;;;;9.80;7.73;;;6.40;99.90;;;;;;4999432;28;20665;-81
2022/03/06 11:32:06;;;;;;;22.13;14.90;;;6.60;99.90;;;;;;5000526;28;20223;-81
2022/03/06 11:34:35;;;;;;;10.10;7.30;;;7.70;99.90;;;;;;5000399;28;20171;-79
2022/03/06 11:37:17;;;;;;;12.53;8.23;;;7.90;97.30;;;;;;4983349;28;20262;-79
2022/03/06 11:39:42;;;;;;;10.93;9.43;;;7.30;99.90;;;;;;4996482;28;20209;-81
2022/03/06 11:42:09;;;;;;;10.60;9.27;;;6.50;97.90;;;;;;4997217;28;20176;-81
2022/03/06 11:45:01;;;;;;;9.13;8.13;;;5.60;98.60;;;;;;4996501;28;20270;-81
2022/03/06 11:47:40;;;;;;;8.50;7.60;;;5.20;99.90;;;;;;5009793;28;20237;-79
2022/03/06 11:50:08;;;;;;;9.70;8.40;;;5.00;99.90;;;;;;4996801;28;20554;-81
2022/03/06 11:52:41;;;;;;;10.10;8.10;;;4.80;99.90;;;;;;4996523;28;20182;-82
2022/03/06 11:55:30;;;;;;;9.40;8.23;;;4.60;99.90;;;;;;4984365;28;20170;-81
2022/03/06 11:57:56;;;;;;;9.30;8.33;;;4.60;99.90;;;;;;5017891;28;20817;-81
2022/03/06 12:00:28;;;;;;;10.97;7.90;;;4.70;99.90;;;;;;5017331;28;20218;-83
2022/03/06 12:02:59;;;;;;;10.77;8.37;;;4.70;99.90;;;;;;5016650;28;20193;-79
2022/03/06 12:05:45;;;;;;;10.80;9.50;;;4.80;99.90;;;;;;4984620;28;20193;-82
2022/03/06 12:08:12;;;;;;;9.73;8.73;;;4.70;99.90;;;;;;5015663;28;20226;-81
2022/03/06 12:10:40;;;;;;;8.53;7.43;;;4.70;99.90;;;;;;4999690;28;20297;-81
2022/03/06 12:13:19;;;;;;;8.90;7.87;;;4.70;99.90;;;;;;5015753;28;20179;-81
2022/03/06 12:16:03;;;;;;;8.37;7.23;;;4.60;99.90;;;;;;5015916;28;20205;-81
2022/03/06 12:18:29;;;;;;;8.17;6.87;;;4.50;99.90;;;;;;5015748;28;20202;-81
2022/03/06 12:20:55;;;;;;;7.97;6.87;;;4.50;99.90;;;;;;5016077;28;20178;-82
2022/03/06 12:23:30;;;;;;;8.00;7.20;;;4.50;99.90;;;;;;4999100;28;20185;-82
2022/03/06 12:25:58;;;;;;;8.67;7.03;;;4.60;99.90;;;;;;4998820;28;20204;-82
2022/03/06 12:28:36;;;;;;;7.93;7.03;;;4.40;99.90;;;;;;5014957;28;20205;-82
2022/03/06 12:31:47;;;;;;;10.43;7.73;;;4.40;99.90;;;;;;4998712;28;20366;-81
2022/03/06 12:34:37;;;;;;;8.77;7.00;;;4.30;99.90;;;;;;4994655;28;20189;-82
2022/03/06 12:37:04;;;;;;;7.60;6.80;;;4.40;99.90;;;;;;5015154;28;20178;-82
2022/03/06 12:39:30;;;;;;;7.67;6.87;;;4.40;99.90;;;;;;4998627;28;20280;-82
2022/03/06 12:41:56;;;;;;;8.87;7.27;;;4.40;99.90;;;;;;4982152;28;20182;-82
2022/03/06 12:44:25;;;;;;;7.03;6.33;;;4.40;99.90;;;;;;5014972;28;20182;-82
2022/03/06 12:46:51;;;;;;;7.30;5.70;;;4.50;99.90;;;;;;5015009;28;20197;-82
2022/03/06 12:49:16;;;;;;;7.77;6.20;;;4.40;99.90;;;;;;5014874;28;20206;-82
2022/03/06 12:51:42;;;;;;;7.90;6.50;;;4.40;99.90;;;;;;4982303;28;20178;-82